sensor_id;sensor_type;location;lat;lon;timestamp;P1;durP1;ratioP1;P2;durP2;ratioP2
3407;SDS011;1717;50.240;8.406;2022-10-23T00:00:19;11.10;;;3.00;;
3407;SDS011;1717;50.240;8.406;2022-10-23T00:02:50;5.00;;;2.67;;
3407;SDS011;1717;50.240;8.406;2022-10-23T00:05:18;5.10;;;2.83;;
3407;SDS011;1717;50.240;8.406;2022-10-23T00:07:47;10.90;;;3.43;;
3407;SDS011;1717;50.240;8.406;2022-10-23T00:10:15;4.20;;;2.60;;
3407;SDS011;1717;50.240;8.406;2022-10-23T00:12:42;12.63;;;3.00;;
3407;SDS011;1717;50.240;8.406;2022-10-23T00:15:09;9.40;;;3.40;;
3407;SDS011;1717;50.240;8.406;2022-10-23T00:17:38;7.60;;;3.20;;
3407;SDS011;1717;50.240;8.406;2022-10-23T00:20:06;9.00;;;3.80;;
3407;SDS011;1717;50.240;8.406;2022-10-23T00:22:34;7.50;;;3.23;;
3407;SDS011;1717;50.240;8.406;2022-10-23T00:25:01;4.77;;;2.67;;
3407;SDS011;1717;50.240;8.406;2022-10-23T00:27:28;9.50;;;2.83;;
3407;SDS011;1717;50.240;8.406;2022-10-23T00:29:55;6.73;;;2.97;;
3407;SDS011;1717;50.240;8.406;2022-10-23T00:32:22;8.93;;;3.07;;
3407;SDS011;1717;50.240;8.406;2022-10-23T00:34:50;10.10;;;3.27;;
3407;SDS011;1717;50.240;8.406;2022-10-23T00:37:17;4.17;;;3.20;;
3407;SDS011;1717;50.240;8.406;2022-10-23T00:39:44;7.27;;;2.80;;
3407;SDS011;1717;50.240;8.406;2022-10-23T00:42:11;8.07;;;2.93;;
3407;SDS011;1717;50.240;8.406;2022-10-23T00:47:34;10.20;;;4.10;;
3407;SDS011;1717;50.240;8.406;2022-10-23T00:50:03;4.53;;;2.17;;
3407;SDS011;1717;50.240;8.406;2022-10-23T00:52:30;6.70;;;3.13;;
3407;SDS011;1717;50.240;8.406;2022-10-23T00:54:58;9.43;;;3.23;;
3407;SDS011;1717;50.240;8.406;2022-10-23T00:57:26;3.33;;;2.33;;
3407;SDS011;1717;50.240;8.406;2022-10-23T00:59:53;5.00;;;2.90;;
3407;SDS011;1717;50.240;8.406;2022-10-23T01:02:20;8.23;;;3.60;;
3407;SDS011;1717;50.240;8.406;2022-10-23T01:04:47;10.80;;;3.67;;
3407;SDS011;1717;50.240;8.406;2022-10-23T01:07:16;4.60;;;2.20;;
3407;SDS011;1717;50.240;8.406;2022-10-23T01:09:50;3.43;;;2.10;;
3407;SDS011;1717;50.240;8.406;2022-10-23T01:12:23;8.40;;;3.30;;
3407;SDS011;1717;50.240;8.406;2022-10-23T01:14:54;6.10;;;2.10;;
3407;SDS011;1717;50.240;8.406;2022-10-23T01:17:32;5.20;;;2.00;;
3407;SDS011;1717;50.240;8.406;2022-10-23T01:20:10;4.00;;;2.13;;
3407;SDS011;1717;50.240;8.406;2022-10-23T01:22:58;3.07;;;1.90;;
3407;SDS011;1717;50.240;8.406;2022-10-23T01:28:55;3.30;;;2.20;;
3407;SDS011;1717;50.240;8.406;2022-10-23T01:31:29;2.47;;;1.70;;
3407;SDS011;1717;50.240;8.406;2022-10-23T01:34:02;5.33;;;2.23;;
3407;SDS011;1717;50.240;8.406;2022-10-23T01:36:33;6.47;;;2.50;;
3407;SDS011;1717;50.240;8.406;2022-10-23T01:39:06;9.90;;;2.50;;
3407;SDS011;1717;50.240;8.406;2022-10-23T01:41:38;7.40;;;2.00;;
3407;SDS011;1717;50.240;8.406;2022-10-23T01:44:12;10.07;;;2.17;;
3407;SDS011;1717;50.240;8.406;2022-10-23T01:46:41;11.40;;;2.30;;
3407;SDS011;1717;50.240;8.406;2022-10-23T01:49:12;9.60;;;2.53;;
3407;SDS011;1717;50.240;8.406;2022-10-23T01:51:40;5.50;;;2.10;;
3407;SDS011;1717;50.240;8.406;2022-10-23T01:54:10;7.73;;;1.90;;
3407;SDS011;1717;50.240;8.406;2022-10-23T01:56:40;10.60;;;2.27;;
3407;SDS011;1717;50.240;8.406;2022-10-23T01:59:11;12.27;;;2.53;;
3407;SDS011;1717;50.240;8.406;2022-10-23T02:01:42;17.00;;;2.80;;
3407;SDS011;1717;50.240;8.406;2022-10-23T02:04:12;7.60;;;2.00;;
3407;SDS011;1717;50.240;8.406;2022-10-23T02:06:43;4.40;;;2.53;;
3407;SDS011;1717;50.240;8.406;2022-10-23T02:09:10;3.53;;;2.23;;
3407;SDS011;1717;50.240;8.406;2022-10-23T02:11:38;7.00;;;1.80;;
3407;SDS011;1717;50.240;8.406;2022-10-23T02:14:12;13.87;;;2.40;;
3407;SDS011;1717;50.240;8.406;2022-10-23T02:16:46;6.17;;;2.17;;
3407;SDS011;1717;50.240;8.406;2022-10-23T02:19:16;4.67;;;3.33;;
3407;SDS011;1717;50.240;8.406;2022-10-23T02:21:50;4.83;;;2.03;;
3407;SDS011;1717;50.240;8.406;2022-10-23T02:24:24;4.47;;;1.93;;
3407;SDS011;1717;50.240;8.406;2022-10-23T02:26:58;6.17;;;2.00;;
3407;SDS011;1717;50.240;8.406;2022-10-23T02:29:29;5.43;;;2.13;;
3407;SDS011;1717;50.240;8.406;2022-10-23T02:31:59;5.03;;;2.13;;
3407;SDS011;1717;50.240;8.406;2022-10-23T02:34:26;4.73;;;1.97;;
3407;SDS011;1717;50.240;8.406;2022-10-23T02:36:53;10.60;;;2.13;;
3407;SDS011;1717;50.240;8.406;2022-10-23T02:39:20;8.40;;;2.27;;
3407;SDS011;1717;50.240;8.406;2022-10-23T02:41:50;13.17;;;3.07;;
3407;SDS011;1717;50.240;8.406;2022-10-23T02:44:30;5.00;;;1.83;;
3407;SDS011;1717;50.240;8.406;2022-10-23T02:47:09;4.53;;;2.73;;
3407;SDS011;1717;50.240;8.406;2022-10-23T02:49:46;5.60;;;2.10;;
3407;SDS011;1717;50.240;8.406;2022-10-23T02:52:20;2.43;;;2.20;;
3407;SDS011;1717;50.240;8.406;2022-10-23T02:54:58;3.60;;;1.97;;
3407;SDS011;1717;50.240;8.406;2022-10-23T02:57:34;2.53;;;1.90;;
3407;SDS011;1717;50.240;8.406;2022-10-23T03:00:07;5.20;;;1.70;;
3407;SDS011;1717;50.240;8.406;2022-10-23T03:02:37;6.00;;;2.07;;
3407;SDS011;1717;50.240;8.406;2022-10-23T03:05:07;5.00;;;2.10;;
3407;SDS011;1717;50.240;8.406;2022-10-23T03:07:37;4.13;;;1.80;;
3407;SDS011;1717;50.240;8.406;2022-10-23T03:10:06;6.30;;;2.40;;
3407;SDS011;1717;50.240;8.406;2022-10-23T03:12:34;4.20;;;1.60;;
3407;SDS011;1717;50.240;8.406;2022-10-23T03:15:01;7.00;;;1.90;;
3407;SDS011;1717;50.240;8.406;2022-10-23T03:17:30;4.03;;;1.60;;
3407;SDS011;1717;50.240;8.406;2022-10-23T03:19:57;6.30;;;1.93;;
3407;SDS011;1717;50.240;8.406;2022-10-23T03:22:24;7.30;;;2.30;;
3407;SDS011;1717;50.240;8.406;2022-10-23T03:24:51;7.20;;;2.30;;
3407;SDS011;1717;50.240;8.406;2022-10-23T03:27:17;4.10;;;2.17;;
3407;SDS011;1717;50.240;8.406;2022-10-23T03:29:44;7.30;;;1.83;;
3407;SDS011;1717;50.240;8.406;2022-10-23T03:32:11;5.23;;;2.03;;
3407;SDS011;1717;50.240;8.406;2022-10-23T03:34:39;3.40;;;1.70;;
3407;SDS011;1717;50.240;8.406;2022-10-23T03:37:06;7.43;;;3.20;;
3407;SDS011;1717;50.240;8.406;2022-10-23T03:39:32;8.57;;;2.70;;
3407;SDS011;1717;50.240;8.406;2022-10-23T03:41:59;3.63;;;2.27;;
3407;SDS011;1717;50.240;8.406;2022-10-23T03:44:26;3.30;;;1.70;;
3407;SDS011;1717;50.240;8.406;2022-10-23T03:46:55;4.93;;;2.37;;
3407;SDS011;1717;50.240;8.406;2022-10-23T03:49:21;3.40;;;2.20;;
3407;SDS011;1717;50.240;8.406;2022-10-23T03:51:50;3.23;;;2.37;;
3407;SDS011;1717;50.240;8.406;2022-10-23T03:54:18;7.57;;;2.67;;
3407;SDS011;1717;50.240;8.406;2022-10-23T03:56:46;3.10;;;1.57;;
3407;SDS011;1717;50.240;8.406;2022-10-23T03:59:12;4.30;;;2.30;;
3407;SDS011;1717;50.240;8.406;2022-10-23T04:01:39;7.93;;;2.57;;
3407;SDS011;1717;50.240;8.406;2022-10-23T04:04:06;6.77;;;1.87;;
3407;SDS011;1717;50.240;8.406;2022-10-23T04:06:33;4.40;;;1.97;;
3407;SDS011;1717;50.240;8.406;2022-10-23T04:09:01;6.87;;;2.17;;
3407;SDS011;1717;50.240;8.406;2022-10-23T04:11:28;6.27;;;3.60;;
3407;SDS011;1717;50.240;8.406;2022-10-23T04:13:55;8.17;;;2.10;;
3407;SDS011;1717;50.240;8.406;2022-10-23T04:16:22;6.10;;;2.50;;
3407;SDS011;1717;50.240;8.406;2022-10-23T04:18:49;6.63;;;1.70;;
3407;SDS011;1717;50.240;8.406;2022-10-23T04:21:16;6.93;;;2.13;;
3407;SDS011;1717;50.240;8.406;2022-10-23T04:23:43;7.67;;;2.23;;
3407;SDS011;1717;50.240;8.406;2022-10-23T04:26:12;3.90;;;2.07;;
3407;SDS011;1717;50.240;8.406;2022-10-23T04:28:39;3.60;;;1.70;;
3407;SDS011;1717;50.240;8.406;2022-10-23T04:31:05;3.07;;;2.00;;
3407;SDS011;1717;50.240;8.406;2022-10-23T04:33:32;4.83;;;2.40;;
3407;SDS011;1717;50.240;8.406;2022-10-23T04:35:59;3.60;;;2.20;;
3407;SDS011;1717;50.240;8.406;2022-10-23T04:38:26;3.50;;;2.03;;
3407;SDS011;1717;50.240;8.406;2022-10-23T04:40:53;2.67;;;2.00;;
3407;SDS011;1717;50.240;8.406;2022-10-23T04:43:21;5.63;;;1.90;;
3407;SDS011;1717;50.240;8.406;2022-10-23T04:45:47;2.40;;;2.00;;
3407;SDS011;1717;50.240;8.406;2022-10-23T04:48:15;7.27;;;2.33;;
3407;SDS011;1717;50.240;8.406;2022-10-23T04:50:42;5.73;;;2.20;;
3407;SDS011;1717;50.240;8.406;2022-10-23T04:53:08;10.00;;;2.70;;
3407;SDS011;1717;50.240;8.406;2022-10-23T04:55:35;10.50;;;2.27;;
3407;SDS011;1717;50.240;8.406;2022-10-23T04:58:02;8.20;;;2.03;;
3407;SDS011;1717;50.240;8.406;2022-10-23T05:00:30;4.13;;;2.63;;
3407;SDS011;1717;50.240;8.406;2022-10-23T05:02:57;11.47;;;2.07;;
3407;SDS011;1717;50.240;8.406;2022-10-23T05:05:24;9.83;;;2.10;;
3407;SDS011;1717;50.240;8.406;2022-10-23T05:07:50;5.57;;;1.80;;
3407;SDS011;1717;50.240;8.406;2022-10-23T05:10:17;6.27;;;2.20;;
3407;SDS011;1717;50.240;8.406;2022-10-23T05:12:44;3.33;;;2.67;;
3407;SDS011;1717;50.240;8.406;2022-10-23T05:15:11;4.13;;;1.93;;
3407;SDS011;1717;50.240;8.406;2022-10-23T05:17:39;5.17;;;2.27;;
3407;SDS011;1717;50.240;8.406;2022-10-23T05:20:09;5.40;;;2.30;;
3407;SDS011;1717;50.240;8.406;2022-10-23T05:22:42;4.10;;;2.10;;
3407;SDS011;1717;50.240;8.406;2022-10-23T05:25:11;9.60;;;2.07;;
3407;SDS011;1717;50.240;8.406;2022-10-23T05:27:38;6.10;;;2.03;;
3407;SDS011;1717;50.240;8.406;2022-10-23T05:30:06;2.47;;;1.50;;
3407;SDS011;1717;50.240;8.406;2022-10-23T05:32:33;4.30;;;2.40;;
3407;SDS011;1717;50.240;8.406;2022-10-23T05:35:04;11.27;;;1.80;;
3407;SDS011;1717;50.240;8.406;2022-10-23T05:37:35;2.07;;;1.83;;
3407;SDS011;1717;50.240;8.406;2022-10-23T05:40:03;2.90;;;1.40;;
3407;SDS011;1717;50.240;8.406;2022-10-23T05:42:31;9.37;;;1.90;;
3407;SDS011;1717;50.240;8.406;2022-10-23T05:44:57;4.17;;;2.00;;
3407;SDS011;1717;50.240;8.406;2022-10-23T05:47:24;3.37;;;1.60;;
3407;SDS011;1717;50.240;8.406;2022-10-23T05:49:51;4.57;;;2.00;;
3407;SDS011;1717;50.240;8.406;2022-10-23T05:52:19;5.20;;;2.27;;
3407;SDS011;1717;50.240;8.406;2022-10-23T05:54:46;4.80;;;1.90;;
3407;SDS011;1717;50.240;8.406;2022-10-23T05:57:13;2.17;;;2.07;;
3407;SDS011;1717;50.240;8.406;2022-10-23T05:59:40;4.33;;;2.07;;
3407;SDS011;1717;50.240;8.406;2022-10-23T06:02:06;5.00;;;1.87;;
3407;SDS011;1717;50.240;8.406;2022-10-23T06:04:33;2.90;;;2.40;;
3407;SDS011;1717;50.240;8.406;2022-10-23T06:07:01;2.63;;;2.43;;
3407;SDS011;1717;50.240;8.406;2022-10-23T06:09:29;2.90;;;2.20;;
3407;SDS011;1717;50.240;8.406;2022-10-23T06:11:56;3.43;;;2.10;;
3407;SDS011;1717;50.240;8.406;2022-10-23T06:14:23;2.70;;;2.40;;
3407;SDS011;1717;50.240;8.406;2022-10-23T06:16:49;3.17;;;2.23;;
3407;SDS011;1717;50.240;8.406;2022-10-23T06:19:16;2.73;;;2.33;;
3407;SDS011;1717;50.240;8.406;2022-10-23T06:21:43;5.80;;;2.60;;
3407;SDS011;1717;50.240;8.406;2022-10-23T06:24:10;3.87;;;2.30;;
3407;SDS011;1717;50.240;8.406;2022-10-23T06:26:38;3.10;;;2.00;;
3407;SDS011;1717;50.240;8.406;2022-10-23T06:29:05;2.80;;;2.17;;
3407;SDS011;1717;50.240;8.406;2022-10-23T06:31:32;4.07;;;2.47;;
3407;SDS011;1717;50.240;8.406;2022-10-23T06:33:59;3.40;;;2.27;;
3407;SDS011;1717;50.240;8.406;2022-10-23T06:36:26;2.80;;;1.80;;
3407;SDS011;1717;50.240;8.406;2022-10-23T06:38:53;4.03;;;3.10;;
3407;SDS011;1717;50.240;8.406;2022-10-23T06:41:20;5.30;;;2.90;;
3407;SDS011;1717;50.240;8.406;2022-10-23T06:43:49;3.00;;;2.40;;
3407;SDS011;1717;50.240;8.406;2022-10-23T06:46:17;5.57;;;2.47;;
3407;SDS011;1717;50.240;8.406;2022-10-23T06:48:45;3.20;;;2.10;;
3407;SDS011;1717;50.240;8.406;2022-10-23T06:51:12;4.00;;;2.20;;
3407;SDS011;1717;50.240;8.406;2022-10-23T06:53:42;4.77;;;2.13;;
3407;SDS011;1717;50.240;8.406;2022-10-23T06:56:09;2.43;;;2.23;;
3407;SDS011;1717;50.240;8.406;2022-10-23T06:58:37;3.63;;;2.77;;
3407;SDS011;1717;50.240;8.406;2022-10-23T07:01:07;7.83;;;2.27;;
3407;SDS011;1717;50.240;8.406;2022-10-23T07:03:36;3.73;;;1.70;;
3407;SDS011;1717;50.240;8.406;2022-10-23T07:06:05;3.00;;;2.03;;
3407;SDS011;1717;50.240;8.406;2022-10-23T07:08:33;2.53;;;2.07;;
3407;SDS011;1717;50.240;8.406;2022-10-23T07:11:01;2.33;;;1.97;;
3407;SDS011;1717;50.240;8.406;2022-10-23T07:13:29;2.30;;;2.10;;
3407;SDS011;1717;50.240;8.406;2022-10-23T07:15:56;2.57;;;2.37;;
3407;SDS011;1717;50.240;8.406;2022-10-23T07:18:25;2.60;;;2.30;;
3407;SDS011;1717;50.240;8.406;2022-10-23T07:20:56;3.73;;;2.00;;
3407;SDS011;1717;50.240;8.406;2022-10-23T07:23:23;3.57;;;2.03;;
3407;SDS011;1717;50.240;8.406;2022-10-23T07:25:50;5.30;;;2.10;;
3407;SDS011;1717;50.240;8.406;2022-10-23T07:28:17;8.53;;;2.53;;
3407;SDS011;1717;50.240;8.406;2022-10-23T07:30:44;4.90;;;2.80;;
3407;SDS011;1717;50.240;8.406;2022-10-23T07:33:20;2.80;;;2.00;;
3407;SDS011;1717;50.240;8.406;2022-10-23T07:35:48;2.97;;;1.57;;
3407;SDS011;1717;50.240;8.406;2022-10-23T07:38:15;3.30;;;1.83;;
3407;SDS011;1717;50.240;8.406;2022-10-23T07:40:42;2.70;;;1.73;;
3407;SDS011;1717;50.240;8.406;2022-10-23T07:43:10;2.50;;;2.30;;
3407;SDS011;1717;50.240;8.406;2022-10-23T07:45:37;2.77;;;1.57;;
3407;SDS011;1717;50.240;8.406;2022-10-23T07:48:04;2.93;;;2.37;;
3407;SDS011;1717;50.240;8.406;2022-10-23T07:50:31;2.50;;;2.30;;
3407;SDS011;1717;50.240;8.406;2022-10-23T07:52:59;2.63;;;1.90;;
3407;SDS011;1717;50.240;8.406;2022-10-23T07:55:26;1.70;;;1.60;;
3407;SDS011;1717;50.240;8.406;2022-10-23T07:57:53;1.70;;;1.50;;
3407;SDS011;1717;50.240;8.406;2022-10-23T08:00:20;1.40;;;1.30;;
3407;SDS011;1717;50.240;8.406;2022-10-23T08:02:47;5.50;;;1.63;;
3407;SDS011;1717;50.240;8.406;2022-10-23T08:05:17;3.13;;;1.57;;
3407;SDS011;1717;50.240;8.406;2022-10-23T08:07:44;3.80;;;1.50;;
3407;SDS011;1717;50.240;8.406;2022-10-23T08:10:12;2.57;;;1.87;;
3407;SDS011;1717;50.240;8.406;2022-10-23T08:12:39;3.43;;;1.83;;
3407;SDS011;1717;50.240;8.406;2022-10-23T08:15:06;2.00;;;1.30;;
3407;SDS011;1717;50.240;8.406;2022-10-23T08:17:34;1.60;;;0.90;;
3407;SDS011;1717;50.240;8.406;2022-10-23T08:20:01;2.50;;;1.30;;
3407;SDS011;1717;50.240;8.406;2022-10-23T08:22:28;2.00;;;1.23;;
3407;SDS011;1717;50.240;8.406;2022-10-23T08:24:54;2.60;;;1.33;;
3407;SDS011;1717;50.240;8.406;2022-10-23T08:27:23;2.17;;;1.53;;
3407;SDS011;1717;50.240;8.406;2022-10-23T08:29:50;2.03;;;1.17;;
3407;SDS011;1717;50.240;8.406;2022-10-23T08:32:16;1.10;;;1.07;;
3407;SDS011;1717;50.240;8.406;2022-10-23T08:34:43;5.50;;;1.40;;
3407;SDS011;1717;50.240;8.406;2022-10-23T08:37:10;2.93;;;2.07;;
3407;SDS011;1717;50.240;8.406;2022-10-23T08:39:37;1.60;;;1.50;;
3407;SDS011;1717;50.240;8.406;2022-10-23T08:42:04;2.53;;;1.30;;
3407;SDS011;1717;50.240;8.406;2022-10-23T08:44:32;2.40;;;1.17;;
3407;SDS011;1717;50.240;8.406;2022-10-23T08:47:06;1.63;;;1.20;;
3407;SDS011;1717;50.240;8.406;2022-10-23T08:49:41;3.30;;;1.73;;
3407;SDS011;1717;50.240;8.406;2022-10-23T08:52:13;4.40;;;1.33;;
3407;SDS011;1717;50.240;8.406;2022-10-23T08:54:48;1.50;;;1.30;;
3407;SDS011;1717;50.240;8.406;2022-10-23T08:57:22;7.10;;;1.20;;
3407;SDS011;1717;50.240;8.406;2022-10-23T08:59:58;3.03;;;1.37;;
3407;SDS011;1717;50.240;8.406;2022-10-23T09:02:29;2.70;;;1.90;;
3407;SDS011;1717;50.240;8.406;2022-10-23T09:05:01;1.67;;;1.43;;
3407;SDS011;1717;50.240;8.406;2022-10-23T09:07:31;1.67;;;1.20;;
3407;SDS011;1717;50.240;8.406;2022-10-23T09:10:09;2.00;;;1.70;;
3407;SDS011;1717;50.240;8.406;2022-10-23T09:12:48;5.17;;;1.40;;
3407;SDS011;1717;50.240;8.406;2022-10-23T09:15:19;1.67;;;1.17;;
3407;SDS011;1717;50.240;8.406;2022-10-23T09:17:53;3.20;;;1.40;;
3407;SDS011;1717;50.240;8.406;2022-10-23T09:20:23;1.70;;;1.60;;
3407;SDS011;1717;50.240;8.406;2022-10-23T09:22:53;2.13;;;1.23;;
3407;SDS011;1717;50.240;8.406;2022-10-23T09:25:23;3.23;;;1.40;;
3407;SDS011;1717;50.240;8.406;2022-10-23T09:27:51;7.47;;;1.13;;
3407;SDS011;1717;50.240;8.406;2022-10-23T09:30:31;3.80;;;1.20;;
3407;SDS011;1717;50.240;8.406;2022-10-23T09:32:59;1.67;;;1.57;;
3407;SDS011;1717;50.240;8.406;2022-10-23T09:35:37;4.20;;;1.20;;
3407;SDS011;1717;50.240;8.406;2022-10-23T09:38:04;3.50;;;1.90;;
3407;SDS011;1717;50.240;8.406;2022-10-23T09:40:35;1.60;;;1.50;;
3407;SDS011;1717;50.240;8.406;2022-10-23T09:43:11;1.30;;;1.20;;
3407;SDS011;1717;50.240;8.406;2022-10-23T09:45:41;1.33;;;1.23;;
3407;SDS011;1717;50.240;8.406;2022-10-23T09:48:09;3.70;;;1.63;;
3407;SDS011;1717;50.240;8.406;2022-10-23T09:50:45;1.50;;;1.40;;
3407;SDS011;1717;50.240;8.406;2022-10-23T09:53:19;1.17;;;1.07;;
3407;SDS011;1717;50.240;8.406;2022-10-23T09:55:56;7.57;;;2.63;;
3407;SDS011;1717;50.240;8.406;2022-10-23T09:58:28;2.60;;;1.50;;
3407;SDS011;1717;50.240;8.406;2022-10-23T10:01:01;1.90;;;1.70;;
3407;SDS011;1717;50.240;8.406;2022-10-23T10:03:29;3.30;;;2.30;;
3407;SDS011;1717;50.240;8.406;2022-10-23T10:05:57;5.37;;;1.70;;
3407;SDS011;1717;50.240;8.406;2022-10-23T10:08:28;5.67;;;1.90;;
3407;SDS011;1717;50.240;8.406;2022-10-23T10:11:04;2.20;;;1.67;;
3407;SDS011;1717;50.240;8.406;2022-10-23T10:13:41;2.10;;;1.50;;
3407;SDS011;1717;50.240;8.406;2022-10-23T10:16:29;2.43;;;1.97;;
3407;SDS011;1717;50.240;8.406;2022-10-23T10:19:05;2.00;;;1.77;;
3407;SDS011;1717;50.240;8.406;2022-10-23T10:21:41;1.87;;;1.77;;
3407;SDS011;1717;50.240;8.406;2022-10-23T10:24:15;2.03;;;1.90;;
3407;SDS011;1717;50.240;8.406;2022-10-23T10:26:46;2.10;;;1.90;;
3407;SDS011;1717;50.240;8.406;2022-10-23T10:29:27;1.73;;;1.60;;
3407;SDS011;1717;50.240;8.406;2022-10-23T10:32:12;1.77;;;1.50;;
3407;SDS011;1717;50.240;8.406;2022-10-23T10:34:50;1.87;;;1.30;;
3407;SDS011;1717;50.240;8.406;2022-10-23T10:37:21;1.60;;;1.50;;
3407;SDS011;1717;50.240;8.406;2022-10-23T10:39:57;3.80;;;1.93;;
3407;SDS011;1717;50.240;8.406;2022-10-23T10:42:38;1.50;;;1.40;;
3407;SDS011;1717;50.240;8.406;2022-10-23T10:45:24;1.60;;;1.07;;
3407;SDS011;1717;50.240;8.406;2022-10-23T10:48:06;1.30;;;1.20;;
3407;SDS011;1717;50.240;8.406;2022-10-23T10:50:46;2.50;;;1.43;;
3407;SDS011;1717;50.240;8.406;2022-10-23T10:53:19;3.10;;;1.40;;
3407;SDS011;1717;50.240;8.406;2022-10-23T10:55:53;1.80;;;1.30;;
3407;SDS011;1717;50.240;8.406;2022-10-23T10:58:23;0.70;;;0.70;;
3407;SDS011;1717;50.240;8.406;2022-10-23T11:01:05;1.17;;;1.00;;
3407;SDS011;1717;50.240;8.406;2022-10-23T11:03:44;0.57;;;0.40;;
3407;SDS011;1717;50.240;8.406;2022-10-23T11:06:17;1.20;;;0.90;;
3407;SDS011;1717;50.240;8.406;2022-10-23T11:08:47;1.00;;;0.90;;
3407;SDS011;1717;50.240;8.406;2022-10-23T11:11:14;1.03;;;0.50;;
3407;SDS011;1717;50.240;8.406;2022-10-23T11:13:44;0.70;;;0.60;;
3407;SDS011;1717;50.240;8.406;2022-10-23T11:16:12;3.40;;;0.50;;
3407;SDS011;1717;50.240;8.406;2022-10-23T11:18:45;0.80;;;0.50;;
3407;SDS011;1717;50.240;8.406;2022-10-23T11:21:22;1.63;;;0.57;;
3407;SDS011;1717;50.240;8.406;2022-10-23T11:24:18;1.37;;;0.90;;
3407;SDS011;1717;50.240;8.406;2022-10-23T11:30:21;4.23;;;0.83;;
3407;SDS011;1717;50.240;8.406;2022-10-23T11:33:10;1.00;;;0.70;;
3407;SDS011;1717;50.240;8.406;2022-10-23T11:35:59;1.77;;;0.73;;
3407;SDS011;1717;50.240;8.406;2022-10-23T11:38:32;3.07;;;2.27;;
3407;SDS011;1717;50.240;8.406;2022-10-23T11:41:03;3.53;;;1.77;;
3407;SDS011;1717;50.240;8.406;2022-10-23T11:43:34;1.50;;;1.30;;
3407;SDS011;1717;50.240;8.406;2022-10-23T11:46:13;8.00;;;1.83;;
3407;SDS011;1717;50.240;8.406;2022-10-23T11:48:54;2.73;;;1.30;;
3407;SDS011;1717;50.240;8.406;2022-10-23T11:51:27;2.43;;;1.40;;
3407;SDS011;1717;50.240;8.406;2022-10-23T11:56:53;2.30;;;1.17;;
3407;SDS011;1717;50.240;8.406;2022-10-23T11:59:28;3.00;;;1.63;;
3407;SDS011;1717;50.240;8.406;2022-10-23T12:01:58;1.53;;;1.03;;
3407;SDS011;1717;50.240;8.406;2022-10-23T12:04:29;3.37;;;2.00;;
3407;SDS011;1717;50.240;8.406;2022-10-23T12:07:13;1.30;;;1.20;;
3407;SDS011;1717;50.240;8.406;2022-10-23T12:09:50;1.87;;;1.67;;
3407;SDS011;1717;50.240;8.406;2022-10-23T12:12:26;3.40;;;2.20;;
3407;SDS011;1717;50.240;8.406;2022-10-23T12:15:05;2.80;;;1.53;;
3407;SDS011;1717;50.240;8.406;2022-10-23T12:17:44;1.60;;;1.50;;
3407;SDS011;1717;50.240;8.406;2022-10-23T12:25:56;2.50;;;1.40;;
3407;SDS011;1717;50.240;8.406;2022-10-23T12:28:34;1.60;;;1.30;;
3407;SDS011;1717;50.240;8.406;2022-10-23T12:31:08;1.37;;;1.03;;
3407;SDS011;1717;50.240;8.406;2022-10-23T12:33:50;2.80;;;1.40;;
3407;SDS011;1717;50.240;8.406;2022-10-23T12:36:29;1.53;;;1.43;;
3407;SDS011;1717;50.240;8.406;2022-10-23T12:41:56;3.10;;;1.07;;
3407;SDS011;1717;50.240;8.406;2022-10-23T12:44:25;2.70;;;1.57;;
3407;SDS011;1717;50.240;8.406;2022-10-23T12:46:55;1.33;;;1.10;;
3407;SDS011;1717;50.240;8.406;2022-10-23T12:49:24;1.63;;;0.90;;
3407;SDS011;1717;50.240;8.406;2022-10-23T12:51:56;4.50;;;1.27;;
3407;SDS011;1717;50.240;8.406;2022-10-23T12:54:26;1.83;;;1.03;;
3407;SDS011;1717;50.240;8.406;2022-10-23T12:56:54;6.73;;;1.70;;
3407;SDS011;1717;50.240;8.406;2022-10-23T12:59:23;6.00;;;1.97;;
3407;SDS011;1717;50.240;8.406;2022-10-23T13:01:51;5.33;;;1.43;;
3407;SDS011;1717;50.240;8.406;2022-10-23T13:04:24;2.60;;;1.10;;
3407;SDS011;1717;50.240;8.406;2022-10-23T13:06:56;3.30;;;1.30;;
3407;SDS011;1717;50.240;8.406;2022-10-23T13:09:26;3.83;;;1.40;;
3407;SDS011;1717;50.240;8.406;2022-10-23T13:11:56;1.60;;;1.40;;
3407;SDS011;1717;50.240;8.406;2022-10-23T13:14:30;3.20;;;1.20;;
3407;SDS011;1717;50.240;8.406;2022-10-23T13:17:00;1.80;;;1.30;;
3407;SDS011;1717;50.240;8.406;2022-10-23T13:19:28;1.70;;;1.10;;
3407;SDS011;1717;50.240;8.406;2022-10-23T13:21:55;2.93;;;1.10;;
3407;SDS011;1717;50.240;8.406;2022-10-23T13:24:24;1.93;;;1.20;;
3407;SDS011;1717;50.240;8.406;2022-10-23T13:26:52;2.10;;;0.90;;
3407;SDS011;1717;50.240;8.406;2022-10-23T13:29:21;2.63;;;1.20;;
3407;SDS011;1717;50.240;8.406;2022-10-23T13:31:50;1.47;;;1.03;;
3407;SDS011;1717;50.240;8.406;2022-10-23T13:34:18;2.00;;;1.20;;
3407;SDS011;1717;50.240;8.406;2022-10-23T13:36:51;3.27;;;2.10;;
3407;SDS011;1717;50.240;8.406;2022-10-23T13:39:24;1.73;;;1.57;;
3407;SDS011;1717;50.240;8.406;2022-10-23T13:41:52;4.20;;;0.90;;
3407;SDS011;1717;50.240;8.406;2022-10-23T13:44:22;3.07;;;1.97;;
3407;SDS011;1717;50.240;8.406;2022-10-23T13:46:50;1.70;;;1.00;;
3407;SDS011;1717;50.240;8.406;2022-10-23T13:49:17;2.20;;;1.17;;
3407;SDS011;1717;50.240;8.406;2022-10-23T13:51:45;4.83;;;1.40;;
3407;SDS011;1717;50.240;8.406;2022-10-23T13:54:15;2.80;;;1.17;;
3407;SDS011;1717;50.240;8.406;2022-10-23T13:56:43;3.43;;;1.30;;
3407;SDS011;1717;50.240;8.406;2022-10-23T13:59:10;1.57;;;1.07;;
3407;SDS011;1717;50.240;8.406;2022-10-23T14:01:39;3.17;;;1.50;;
3407;SDS011;1717;50.240;8.406;2022-10-23T14:04:07;1.70;;;0.83;;
3407;SDS011;1717;50.240;8.406;2022-10-23T14:06:35;2.10;;;1.20;;
3407;SDS011;1717;50.240;8.406;2022-10-23T14:09:03;2.90;;;1.23;;
3407;SDS011;1717;50.240;8.406;2022-10-23T14:11:31;1.50;;;1.40;;
3407;SDS011;1717;50.240;8.406;2022-10-23T14:13:58;4.97;;;1.70;;
3407;SDS011;1717;50.240;8.406;2022-10-23T14:16:25;2.00;;;1.50;;
3407;SDS011;1717;50.240;8.406;2022-10-23T14:18:53;1.47;;;1.10;;
3407;SDS011;1717;50.240;8.406;2022-10-23T14:21:21;4.10;;;1.50;;
3407;SDS011;1717;50.240;8.406;2022-10-23T14:23:49;3.70;;;1.60;;
3407;SDS011;1717;50.240;8.406;2022-10-23T14:26:18;3.07;;;1.50;;
3407;SDS011;1717;50.240;8.406;2022-10-23T14:28:47;1.30;;;1.17;;
3407;SDS011;1717;50.240;8.406;2022-10-23T14:31:16;2.50;;;1.60;;
3407;SDS011;1717;50.240;8.406;2022-10-23T14:33:44;2.00;;;1.60;;
3407;SDS011;1717;50.240;8.406;2022-10-23T14:36:13;3.23;;;1.20;;
3407;SDS011;1717;50.240;8.406;2022-10-23T14:38:39;3.20;;;1.47;;
3407;SDS011;1717;50.240;8.406;2022-10-23T14:41:10;2.80;;;1.43;;
3407;SDS011;1717;50.240;8.406;2022-10-23T14:43:37;1.57;;;1.20;;
3407;SDS011;1717;50.240;8.406;2022-10-23T14:46:08;1.03;;;1.00;;
3407;SDS011;1717;50.240;8.406;2022-10-23T14:48:36;2.50;;;1.00;;
3407;SDS011;1717;50.240;8.406;2022-10-23T14:51:04;2.40;;;1.23;;
3407;SDS011;1717;50.240;8.406;2022-10-23T14:53:33;3.63;;;1.30;;
3407;SDS011;1717;50.240;8.406;2022-10-23T14:56:00;3.50;;;1.30;;
3407;SDS011;1717;50.240;8.406;2022-10-23T14:58:28;3.70;;;1.83;;
3407;SDS011;1717;50.240;8.406;2022-10-23T15:00:56;5.30;;;2.10;;
3407;SDS011;1717;50.240;8.406;2022-10-23T15:03:23;3.07;;;1.70;;
3407;SDS011;1717;50.240;8.406;2022-10-23T15:05:50;4.40;;;1.83;;
3407;SDS011;1717;50.240;8.406;2022-10-23T15:08:17;3.63;;;1.60;;
3407;SDS011;1717;50.240;8.406;2022-10-23T15:10:46;12.57;;;2.07;;
3407;SDS011;1717;50.240;8.406;2022-10-23T15:13:13;1.67;;;1.40;;
3407;SDS011;1717;50.240;8.406;2022-10-23T15:15:40;4.10;;;2.07;;
3407;SDS011;1717;50.240;8.406;2022-10-23T15:18:07;3.27;;;1.63;;
3407;SDS011;1717;50.240;8.406;2022-10-23T15:20:34;4.83;;;1.37;;
3407;SDS011;1717;50.240;8.406;2022-10-23T15:23:01;2.30;;;1.60;;
3407;SDS011;1717;50.240;8.406;2022-10-23T15:25:28;3.60;;;1.43;;
3407;SDS011;1717;50.240;8.406;2022-10-23T15:27:56;3.40;;;1.33;;
3407;SDS011;1717;50.240;8.406;2022-10-23T15:30:22;2.20;;;1.97;;
3407;SDS011;1717;50.240;8.406;2022-10-23T15:32:49;3.13;;;1.80;;
3407;SDS011;1717;50.240;8.406;2022-10-23T15:35:16;7.20;;;2.17;;
3407;SDS011;1717;50.240;8.406;2022-10-23T15:37:43;5.93;;;2.07;;
3407;SDS011;1717;50.240;8.406;2022-10-23T15:40:11;3.87;;;1.60;;
3407;SDS011;1717;50.240;8.406;2022-10-23T15:42:38;3.33;;;1.60;;
3407;SDS011;1717;50.240;8.406;2022-10-23T15:45:08;4.20;;;1.43;;
3407;SDS011;1717;50.240;8.406;2022-10-23T15:47:38;4.73;;;1.63;;
3407;SDS011;1717;50.240;8.406;2022-10-23T15:50:06;2.30;;;1.60;;
3407;SDS011;1717;50.240;8.406;2022-10-23T15:52:33;6.37;;;1.77;;